Time;durP1;ratioP1;P1;durP2;ratioP2;P2;SDS_P1;SDS_P2;PMS_P1;PMS_P2;Temp;Humidity;BMP_temperature;BMP_pressure;BME280_temperature;BME280_humidity;BME280_pressure;Samples;Min_cycle;Max_cycle;Signal;HPM_P1;HPM_P2
2020/12/15 00:01:56;;;;;;;12.35;1.98;;;8.10;99.90;;;;;;5088572;28;20173;-81
2020/12/15 00:04:23;;;;;;;10.55;2.17;;;8.10;99.90;;;;;;5088662;28;20538;-82
2020/12/15 00:06:49;;;;;;;7.85;1.48;;;8.10;99.90;;;;;;5088866;28;20467;-79
2020/12/15 00:09:15;;;;;;;9.95;1.90;;;8.00;99.90;;;;;;5087630;28;20470;-82
2020/12/15 00:11:41;;;;;;;12.32;2.40;;;8.00;99.90;;;;;;5088173;28;20118;-81
2020/12/15 00:14:07;;;;;;;16.83;2.67;;;8.00;99.90;;;;;;5087328;28;20237;-83
2020/12/15 00:16:33;;;;;;;14.85;2.00;;;8.00;99.90;;;;;;5087593;28;20044;-81
2020/12/15 00:18:58;;;;;;;17.90;2.28;;;8.00;99.90;;;;;;5087492;28;20078;-81
2020/12/15 00:21:26;;;;;;;9.98;2.05;;;8.00;99.90;;;;;;5087407;28;20043;-83
2020/12/15 00:23:53;;;;;;;17.25;2.20;;;8.00;99.90;;;;;;5087415;28;20046;-80
2020/12/15 00:26:21;;;;;;;13.65;1.98;;;8.00;99.90;;;;;;5070995;28;20028;-82
2020/12/15 00:28:50;;;;;;;18.40;2.30;;;8.00;99.90;;;;;;5089244;28;20424;-82
2020/12/15 00:31:17;;;;;;;12.00;1.88;;;8.00;99.90;;;;;;5087260;28;20466;-82
2020/12/15 00:33:43;;;;;;;13.32;2.50;;;8.00;99.90;;;;;;5087458;28;20067;-81
2020/12/15 00:36:09;;;;;;;8.05;1.70;;;8.00;99.90;;;;;;5070547;28;20089;-83
2020/12/15 00:38:36;;;;;;;14.68;2.55;;;7.90;99.90;;;;;;5070355;28;20032;-82
2020/12/15 00:41:02;;;;;;;11.73;2.13;;;7.90;99.90;;;;;;5087431;28;20028;-81
2020/12/15 00:43:27;;;;;;;14.85;2.17;;;8.00;99.90;;;;;;5087009;28;20028;-80
2020/12/15 00:45:53;;;;;;;11.40;1.83;;;7.90;99.90;;;;;;5070697;28;20477;-80
2020/12/15 00:48:19;;;;;;;7.57;2.15;;;7.90;99.90;;;;;;5087029;28;20482;-80
2020/12/15 00:50:45;;;;;;;19.60;2.15;;;7.90;99.90;;;;;;5070363;28;20485;-80
2020/12/15 00:53:10;;;;;;;13.43;2.30;;;7.90;99.90;;;;;;5088622;28;20052;-81
2020/12/15 00:55:36;;;;;;;16.90;3.00;;;7.90;99.90;;;;;;5087379;28;20024;-81
2020/12/15 00:58:02;;;;;;;13.55;2.10;;;8.00;99.90;;;;;;5087537;28;20118;-79
2020/12/15 01:00:27;;;;;;;14.32;2.63;;;8.00;99.90;;;;;;5087404;28;20111;-82
2020/12/15 01:02:53;;;;;;;10.43;1.80;;;8.00;99.90;;;;;;5088005;28;20031;-82
2020/12/15 01:05:19;;;;;;;16.85;1.95;;;8.00;99.90;;;;;;5092583;28;20111;-82
2020/12/15 01:07:46;;;;;;;12.02;2.08;;;8.00;99.90;;;;;;5090839;28;20032;-83
2020/12/15 01:10:11;;;;;;;14.57;2.20;;;8.00;99.90;;;;;;5090674;28;20032;-81
2020/12/15 01:12:37;;;;;;;11.77;1.60;;;8.00;99.90;;;;;;5091041;28;20039;-82
2020/12/15 01:15:03;;;;;;;12.80;2.88;;;8.10;99.90;;;;;;5090883;28;20020;-81
2020/12/15 01:17:29;;;;;;;15.77;2.63;;;8.10;99.90;;;;;;5092203;28;20040;-83
2020/12/15 01:19:54;;;;;;;7.53;1.80;;;8.10;99.90;;;;;;5090391;28;20032;-80
2020/12/15 01:22:20;;;;;;;9.75;1.92;;;8.10;99.90;;;;;;5090584;28;20032;-80
2020/12/15 01:24:45;;;;;;;10.50;1.55;;;8.10;99.90;;;;;;5090676;28;20024;-80
2020/12/15 01:27:11;;;;;;;21.75;1.92;;;8.10;99.90;;;;;;5090189;28;20115;-81
2020/12/15 01:29:37;;;;;;;10.90;1.60;;;8.10;99.90;;;;;;5090048;28;20024;-81
2020/12/15 01:32:05;;;;;;;15.82;2.42;;;8.10;99.90;;;;;;5090311;28;20032;-79
2020/12/15 01:34:31;;;;;;;8.30;1.73;;;8.10;99.90;;;;;;5090303;28;20024;-81
2020/12/15 01:36:58;;;;;;;22.67;2.00;;;8.10;99.90;;;;;;5090722;28;20028;-80
2020/12/15 01:39:24;;;;;;;17.52;2.63;;;8.10;99.90;;;;;;5090343;28;20032;-81
2020/12/15 01:41:50;;;;;;;10.43;2.05;;;8.10;99.90;;;;;;5073268;28;20047;-80
2020/12/15 01:44:15;;;;;;;10.93;1.48;;;8.10;99.90;;;;;;5089707;28;20042;-79
2020/12/15 01:46:41;;;;;;;16.45;1.95;;;8.10;99.90;;;;;;5089948;28;20028;-80
2020/12/15 01:49:08;;;;;;;12.65;2.47;;;8.00;99.90;;;;;;5073036;28;20505;-81
2020/12/15 01:51:35;;;;;;;18.95;3.20;;;8.00;99.90;;;;;;5090390;28;20024;-81
2020/12/15 01:54:01;;;;;;;16.63;2.10;;;8.00;99.90;;;;;;5090469;28;20078;-79
2020/12/15 01:56:28;;;;;;;14.02;2.38;;;8.00;99.90;;;;;;5090170;28;20024;-81
2020/12/15 01:58:56;;;;;;;7.05;1.52;;;8.00;99.90;;;;;;5092096;28;20036;-79
2020/12/15 02:01:23;;;;;;;13.68;2.88;;;8.00;99.90;;;;;;5091461;28;20390;-81
2020/12/15 02:03:51;;;;;;;7.20;1.58;;;8.00;99.90;;;;;;5072741;28;20032;-80
2020/12/15 02:06:18;;;;;;;13.88;1.70;;;8.00;99.90;;;;;;5091401;28;20081;-80
2020/12/15 02:08:45;;;;;;;11.57;1.63;;;8.00;99.90;;;;;;5089273;28;20039;-81
2020/12/15 02:11:11;;;;;;;12.75;1.83;;;8.00;99.90;;;;;;5089970;28;20065;-80
2020/12/15 02:13:37;;;;;;;13.70;1.80;;;7.90;99.90;;;;;;5089704;28;20542;-80
2020/12/15 02:16:14;;;;;;;10.55;1.40;;;7.90;99.90;;;;;;5088793;28;20048;-81
2020/12/15 02:18:41;;;;;;;9.60;1.67;;;7.90;99.90;;;;;;5090916;28;20243;-79
2020/12/15 02:21:08;;;;;;;21.63;2.85;;;7.90;99.90;;;;;;5091434;28;20035;-80
2020/12/15 02:23:34;;;;;;;14.80;2.55;;;7.90;99.90;;;;;;5091430;28;20031;-81
2020/12/15 02:26:07;;;;;;;11.52;1.70;;;7.90;99.90;;;;;;5091476;28;20031;-79
2020/12/15 02:28:34;;;;;;;14.52;3.10;;;7.90;99.90;;;;;;5091534;28;20032;-80
2020/12/15 02:30:59;;;;;;;9.30;1.88;;;8.00;99.90;;;;;;5091185;28;20029;-81
2020/12/15 02:33:25;;;;;;;17.60;2.50;;;7.90;99.90;;;;;;5090007;28;20375;-80
2020/12/15 02:35:51;;;;;;;8.40;1.48;;;7.90;99.90;;;;;;5090023;28;20028;-80
2020/12/15 02:38:17;;;;;;;18.52;2.08;;;7.90;99.90;;;;;;5089742;28;20359;-80
2020/12/15 02:40:43;;;;;;;11.23;1.63;;;7.90;99.90;;;;;;5089629;28;20089;-81
2020/12/15 02:43:09;;;;;;;17.35;1.90;;;7.90;99.90;;;;;;5089356;28;20060;-79
2020/12/15 02:45:35;;;;;;;11.02;3.17;;;8.00;99.90;;;;;;5090601;28;20434;-81
2020/12/15 02:48:01;;;;;;;10.35;1.30;;;8.00;99.90;;;;;;5088583;28;20048;-81
2020/12/15 02:50:26;;;;;;;7.60;1.65;;;8.00;99.90;;;;;;5088930;28;20032;-82
2020/12/15 02:52:52;;;;;;;12.27;1.85;;;8.00;99.90;;;;;;5089218;28;20032;-80
2020/12/15 02:55:18;;;;;;;13.07;1.83;;;8.00;99.90;;;;;;5089721;28;20046;-81
2020/12/15 02:57:48;;;;;;;10.35;1.10;;;8.00;99.90;;;;;;5090434;28;20536;-81
2020/12/15 03:00:14;;;;;;;14.32;1.33;;;8.00;99.90;;;;;;5090134;28;20039;-80
2020/12/15 03:02:39;;;;;;;5.63;1.65;;;8.00;99.90;;;;;;5088767;28;20036;-83
2020/12/15 03:05:05;;;;;;;8.70;1.17;;;8.00;99.90;;;;;;5071622;28;20032;-81
2020/12/15 03:07:32;;;;;;;13.30;1.90;;;8.00;99.90;;;;;;5088331;28;20069;-81
2020/12/15 03:09:59;;;;;;;8.27;1.50;;;8.00;99.90;;;;;;5088434;28;20044;-82
2020/12/15 03:12:24;;;;;;;11.20;1.55;;;8.00;99.90;;;;;;5089183;28;20077;-82
2020/12/15 03:14:50;;;;;;;10.20;1.23;;;7.90;99.90;;;;;;5088741;28;20123;-81
2020/12/15 03:17:16;;;;;;;8.73;2.28;;;7.90;99.90;;;;;;5089654;28;20043;-82
2020/12/15 03:19:42;;;;;;;7.60;1.10;;;7.90;99.90;;;;;;5088239;28;20024;-81
2020/12/15 03:22:09;;;;;;;7.05;1.08;;;8.00;99.90;;;;;;5088638;28;20020;-83
2020/12/15 03:24:35;;;;;;;10.15;1.25;;;7.90;99.90;;;;;;5088263;28;20534;-82
2020/12/15 03:27:00;;;;;;;5.07;1.13;;;8.00;99.90;;;;;;5088170;28;20123;-82
2020/12/15 03:29:26;;;;;;;12.35;1.27;;;7.90;99.90;;;;;;5088217;28;20032;-81
2020/12/15 03:31:52;;;;;;;9.55;1.10;;;7.90;99.90;;;;;;5089519;28;20074;-81
2020/12/15 03:34:18;;;;;;;9.00;1.27;;;7.90;99.90;;;;;;5071497;28;20020;-80
2020/12/15 03:36:43;;;;;;;15.07;2.25;;;7.90;99.90;;;;;;5089284;28;20428;-82
2020/12/15 03:39:09;;;;;;;7.95;1.10;;;7.80;99.90;;;;;;5087951;28;20146;-81
2020/12/15 03:41:35;;;;;;;9.00;1.27;;;7.90;99.90;;;;;;5071301;28;20067;-79
2020/12/15 03:44:01;;;;;;;15.55;1.30;;;7.90;99.90;;;;;;5087842;28;20024;-83
2020/12/15 03:46:27;;;;;;;13.02;1.70;;;7.80;99.90;;;;;;5071003;28;20035;-81
2020/12/15 03:48:53;;;;;;;10.27;1.08;;;7.90;99.90;;;;;;5087812;28;20024;-80
2020/12/15 03:51:18;;;;;;;9.85;2.10;;;7.80;99.90;;;;;;5087583;28;20024;-81
2020/12/15 03:53:44;;;;;;;8.02;1.08;;;7.80;99.90;;;;;;5089358;28;20499;-82
2020/12/15 03:56:11;;;;;;;9.48;1.25;;;7.80;99.90;;;;;;5088197;28;20325;-80
2020/12/15 03:58:37;;;;;;;10.13;1.27;;;7.80;99.90;;;;;;5088131;28;20085;-81
2020/12/15 04:01:04;;;;;;;15.48;1.58;;;7.80;99.90;;;;;;5070917;28;20036;-79
2020/12/15 04:03:30;;;;;;;6.43;1.15;;;7.80;99.90;;;;;;5089085;28;20028;-81
2020/12/15 04:05:56;;;;;;;11.82;1.52;;;7.80;99.90;;;;;;5087671;28;20130;-79
2020/12/15 04:08:22;;;;;;;11.38;1.77;;;7.80;99.90;;;;;;5088728;28;20032;-82
2020/12/15 04:10:49;;;;;;;10.07;1.48;;;7.80;99.90;;;;;;5087689;28;20031;-81
2020/12/15 04:13:16;;;;;;;10.60;1.35;;;7.70;99.90;;;;;;5089266;28;20478;-82
2020/12/15 04:15:42;;;;;;;11.23;2.05;;;7.70;99.90;;;;;;5087028;28;20044;-82
2020/12/15 04:18:08;;;;;;;13.40;1.70;;;7.70;99.90;;;;;;5087491;28;20031;-80
2020/12/15 04:20:33;;;;;;;10.93;1.40;;;7.70;99.90;;;;;;5087043;28;20089;-80
2020/12/15 04:22:59;;;;;;;16.02;2.20;;;7.70;99.90;;;;;;5087357;28;20028;-83
2020/12/15 04:25:25;;;;;;;9.23;2.35;;;7.70;99.90;;;;;;5087283;28;20024;-82
2020/12/15 04:27:50;;;;;;;23.27;2.88;;;7.70;99.90;;;;;;5087247;28;20040;-81
2020/12/15 04:30:16;;;;;;;9.80;1.42;;;7.70;99.90;;;;;;5070148;28;20032;-81
2020/12/15 04:32:42;;;;;;;20.48;2.50;;;7.70;99.90;;;;;;5087304;28;20231;-79
2020/12/15 04:35:07;;;;;;;12.63;2.45;;;7.70;99.90;;;;;;5088561;28;20066;-79
2020/12/15 04:37:33;;;;;;;6.80;1.42;;;7.70;99.90;;;;;;5087563;28;20123;-80
2020/12/15 04:39:59;;;;;;;7.97;1.58;;;7.70;99.90;;;;;;5090908;28;20039;-80
2020/12/15 04:42:25;;;;;;;16.55;2.25;;;7.70;99.90;;;;;;5074391;28;20031;-80
2020/12/15 04:44:51;;;;;;;11.82;2.05;;;7.70;99.90;;;;;;5092235;28;20040;-79
2020/12/15 04:47:26;;;;;;;13.02;1.65;;;7.70;99.90;;;;;;5090689;28;20064;-80
2020/12/15 04:50:05;;;;;;;14.05;1.70;;;7.60;99.90;;;;;;5092138;28;20470;-81
2020/12/15 04:52:58;;;;;;;16.73;1.98;;;7.60;99.90;;;;;;5090869;28;20028;-80
2020/12/15 04:55:25;;;;;;;12.55;1.33;;;7.60;99.90;;;;;;5083510;28;20050;-80
2020/12/15 04:57:53;;;;;;;13.45;1.63;;;7.60;99.90;;;;;;5073583;28;20085;-80
2020/12/15 05:00:19;;;;;;;15.55;2.28;;;7.60;99.90;;;;;;5073590;28;20054;-81
2020/12/15 05:02:52;;;;;;;13.02;1.92;;;7.60;99.90;;;;;;5092043;28;20020;-82
2020/12/15 05:05:22;;;;;;;13.15;2.10;;;7.60;99.90;;;;;;5090647;28;20032;-81
2020/12/15 05:07:48;;;;;;;23.08;1.80;;;7.60;99.90;;;;;;5090903;28;20054;-83
2020/12/15 05:10:16;;;;;;;11.13;1.58;;;7.50;99.90;;;;;;5091943;28;20031;-81
2020/12/15 05:12:42;;;;;;;12.93;1.60;;;7.50;99.90;;;;;;5090650;28;20371;-80
2020/12/15 05:15:12;;;;;;;12.73;1.50;;;7.50;99.90;;;;;;5091866;28;20031;-81
2020/12/15 05:17:39;;;;;;;17.73;2.75;;;7.50;99.90;;;;;;5073425;28;20057;-80
2020/12/15 05:20:06;;;;;;;21.15;1.92;;;7.50;99.90;;;;;;5091371;28;20024;-83
2020/12/15 05:22:42;;;;;;;19.00;2.67;;;7.50;99.90;;;;;;5090427;28;20697;-79
2020/12/15 05:25:09;;;;;;;10.95;1.40;;;7.50;99.90;;;;;;5091482;28;20020;-80
2020/12/15 05:27:41;;;;;;;19.58;2.20;;;7.40;99.90;;;;;;5089856;28;20070;-80
2020/12/15 05:30:11;;;;;;;9.68;1.45;;;7.50;99.90;;;;;;5089929;28;20036;-81
2020/12/15 05:32:57;;;;;;;11.32;1.25;;;7.40;99.90;;;;;;5090283;28;20032;-82
2020/12/15 05:35:25;;;;;;;12.63;2.08;;;7.40;99.90;;;;;;5090484;28;20445;-80
2020/12/15 05:37:51;;;;;;;7.57;1.75;;;7.40;99.90;;;;;;5091112;28;20036;-80
2020/12/15 05:40:17;;;;;;;10.52;1.10;;;7.40;99.90;;;;;;5091121;28;20065;-81
2020/12/15 05:42:50;;;;;;;8.38;1.20;;;7.40;99.90;;;;;;5073323;28;20490;-81
2020/12/15 05:45:19;;;;;;;12.35;1.20;;;7.40;99.90;;;;;;5090536;28;20449;-81
2020/12/15 05:47:48;;;;;;;10.15;1.30;;;7.40;99.90;;;;;;5091479;28;20479;-83
2020/12/15 05:50:25;;;;;;;8.20;1.25;;;7.40;99.90;;;;;;5089498;28;20378;-81
2020/12/15 05:53:11;;;;;;;11.02;1.63;;;7.40;99.90;;;;;;5091008;28;20504;-81
2020/12/15 05:55:39;;;;;;;5.20;0.80;;;7.40;99.90;;;;;;5089775;28;20397;-81
2020/12/15 05:58:06;;;;;;;8.25;1.05;;;7.40;99.90;;;;;;5089732;28;20024;-81
2020/12/15 06:00:32;;;;;;;11.85;1.83;;;7.30;99.90;;;;;;5089261;28;20032;-80
2020/12/15 06:03:02;;;;;;;10.43;1.17;;;7.30;99.90;;;;;;5089587;28;20020;-80
2020/12/15 06:05:33;;;;;;;9.05;1.10;;;7.30;99.90;;;;;;5089360;28;20035;-80
2020/12/15 06:08:00;;;;;;;5.13;0.90;;;7.20;99.90;;;;;;5090604;28;20032;-81
2020/12/15 06:10:27;;;;;;;7.13;1.10;;;7.20;99.90;;;;;;5089258;28;20043;-81
2020/12/15 06:12:55;;;;;;;11.95;1.33;;;7.20;99.90;;;;;;5089499;28;20411;-80
2020/12/15 06:15:20;;;;;;;5.30;0.80;;;7.20;99.90;;;;;;5089596;28;20028;-81
2020/12/15 06:17:59;;;;;;;6.07;1.02;;;7.10;99.90;;;;;;5072683;28;20028;-81
2020/12/15 06:20:33;;;;;;;9.13;1.17;;;7.20;99.90;;;;;;5090573;28;20020;-80
2020/12/15 06:22:59;;;;;;;6.55;0.80;;;7.20;99.90;;;;;;5090162;28;20028;-81
2020/12/15 06:25:33;;;;;;;13.52;2.33;;;7.20;99.90;;;;;;5089866;28;20028;-81
2020/12/15 06:28:05;;;;;;;5.82;1.27;;;7.20;99.90;;;;;;5071986;28;20043;-80
2020/12/15 06:30:36;;;;;;;9.55;1.00;;;7.20;99.90;;;;;;5088578;28;20035;-80
2020/12/15 06:33:07;;;;;;;9.15;1.67;;;7.20;99.90;;;;;;5072053;28;20032;-81
2020/12/15 06:35:34;;;;;;;5.43;0.70;;;7.20;99.90;;;;;;5090233;28;20020;-80
2020/12/15 06:38:01;;;;;;;9.13;1.15;;;7.20;99.90;;;;;;5088734;28;20039;-81
2020/12/15 06:40:44;;;;;;;12.45;1.52;;;7.20;99.90;;;;;;5089975;28;20137;-83
2020/12/15 06:43:13;;;;;;;11.05;1.52;;;7.10;99.90;;;;;;5088620;28;20043;-81
2020/12/15 06:45:38;;;;;;;3.90;1.00;;;7.10;99.90;;;;;;5071983;28;20108;-80
2020/12/15 06:48:06;;;;;;;8.57;1.55;;;7.10;99.90;;;;;;5071304;28;20115;-79
2020/12/15 06:50:46;;;;;;;6.43;1.23;;;7.10;99.90;;;;;;5088336;28;20020;-80
2020/12/15 06:53:17;;;;;;;6.75;1.63;;;7.10;99.90;;;;;;5089543;28;20432;-80
2020/12/15 06:55:43;;;;;;;6.88;1.30;;;7.10;99.90;;;;;;5089026;28;20394;-79
2020/12/15 06:58:09;;;;;;;9.23;1.35;;;7.10;99.90;;;;;;5088664;28;20038;-78
2020/12/15 07:00:40;;;;;;;6.32;0.90;;;7.10;99.90;;;;;;5071743;28;20033;-80
2020/12/15 07:03:08;;;;;;;7.75;1.13;;;7.10;99.90;;;;;;5088197;28;20032;-80
2020/12/15 07:05:35;;;;;;;13.52;3.38;;;7.20;99.90;;;;;;5071179;28;20526;-79
2020/12/15 07:08:09;;;;;;;4.45;0.85;;;7.20;99.90;;;;;;5088237;28;20170;-80
2020/12/15 07:10:39;;;;;;;8.55;0.90;;;7.10;99.90;;;;;;5088247;28;20024;-80
2020/12/15 07:13:05;;;;;;;11.50;1.58;;;7.10;99.90;;;;;;5088813;28;20024;-80
2020/12/15 07:15:32;;;;;;;3.25;0.68;;;7.10;99.90;;;;;;5087751;28;20024;-80
2020/12/15 07:18:00;;;;;;;8.93;1.20;;;7.10;99.90;;;;;;5087924;28;20038;-79
2020/12/15 07:20:26;;;;;;;9.30;1.35;;;7.10;99.90;;;;;;5089123;28;20024;-80
2020/12/15 07:22:51;;;;;;;8.70;1.50;;;7.10;99.90;;;;;;5087895;28;20028;-80
2020/12/15 07:25:18;;;;;;;5.10;1.15;;;7.10;99.90;;;;;;5087982;28;20106;-81
2020/12/15 07:27:45;;;;;;;10.25;1.02;;;7.00;99.90;;;;;;5070341;28;20073;-81
2020/12/15 07:30:16;;;;;;;9.23;1.15;;;7.00;99.90;;;;;;5087908;28;20528;-80
2020/12/15 07:32:43;;;;;;;8.57;0.82;;;7.00;99.90;;;;;;5089494;28;20020;-79
2020/12/15 07:35:13;;;;;;;9.15;1.23;;;7.00;99.90;;;;;;5088958;28;20105;-81
2020/12/15 07:37:41;;;;;;;11.27;1.20;;;7.00;99.90;;;;;;5089169;28;20024;-81
2020/12/15 07:40:09;;;;;;;8.90;1.10;;;7.00;99.90;;;;;;5087345;28;20039;-78
2020/12/15 07:42:35;;;;;;;9.32;0.90;;;7.00;99.90;;;;;;5087549;28;20053;-79
2020/12/15 07:45:04;;;;;;;11.75;1.50;;;7.00;99.90;;;;;;5087330;28;20032;-80
2020/12/15 07:47:38;;;;;;;6.43;1.35;;;7.10;99.90;;;;;;5088180;28;20387;-79
2020/12/15 07:50:04;;;;;;;6.38;1.00;;;7.10;99.90;;;;;;5087230;28;20111;-81
2020/12/15 07:52:32;;;;;;;6.07;0.90;;;7.10;99.90;;;;;;5087335;28;20562;-81
2020/12/15 07:55:13;;;;;;;8.15;1.63;;;7.10;99.90;;;;;;5087340;28;20579;-79
2020/12/15 07:57:41;;;;;;;6.78;0.80;;;7.20;99.90;;;;;;5088912;28;20032;-80
2020/12/15 08:00:06;;;;;;;5.28;0.70;;;7.20;99.90;;;;;;5087496;28;20031;-80
2020/12/15 08:02:32;;;;;;;4.70;0.60;;;7.20;99.90;;;;;;5087385;28;20386;-81
2020/12/15 08:05:12;;;;;;;6.68;0.85;;;7.20;99.90;;;;;;5087279;28;20040;-80
2020/12/15 08:07:43;;;;;;;5.22;2.15;;;7.30;99.90;;;;;;5087710;28;20028;-79
2020/12/15 08:10:10;;;;;;;4.82;0.77;;;7.30;99.90;;;;;;5087108;28;20027;-79
2020/12/15 08:12:37;;;;;;;7.45;1.08;;;7.30;99.90;;;;;;5087926;28;20469;-78
2020/12/15 08:15:03;;;;;;;9.02;1.25;;;7.30;99.90;;;;;;5088403;28;20163;-79
2020/12/15 08:17:31;;;;;;;9.13;1.25;;;7.30;99.90;;;;;;5087609;28;20040;-81
2020/12/15 08:20:06;;;;;;;8.57;1.60;;;7.30;99.90;;;;;;5088788;28;20074;-81
2020/12/15 08:22:38;;;;;;;11.77;2.50;;;7.20;99.90;;;;;;5088101;28;20035;-82
2020/12/15 08:25:04;;;;;;;7.78;1.20;;;7.20;99.90;;;;;;5087465;28;20600;-80
2020/12/15 08:27:30;;;;;;;9.45;1.20;;;7.20;99.90;;;;;;5088749;28;20032;-80
2020/12/15 08:29:56;;;;;;;22.30;1.90;;;7.20;99.90;;;;;;5087720;28;20138;-82
2020/12/15 08:32:29;;;;;;;5.18;1.05;;;7.20;99.90;;;;;;5088593;28;20056;-83
2020/12/15 08:35:03;;;;;;;9.38;1.65;;;7.30;99.90;;;;;;5087407;28;20459;-81
2020/12/15 08:37:29;;;;;;;11.63;1.42;;;7.30;99.90;;;;;;5086868;28;20069;-80
2020/12/15 08:39:55;;;;;;;9.45;1.67;;;7.30;99.90;;;;;;5087291;28;20092;-80
2020/12/15 08:42:21;;;;;;;15.40;1.88;;;7.30;99.90;;;;;;5086857;28;20104;-81
2020/12/15 08:44:48;;;;;;;10.35;2.05;;;7.40;99.90;;;;;;5089147;28;20028;-81
2020/12/15 08:47:18;;;;;;;9.68;1.90;;;7.40;99.90;;;;;;5086834;28;20093;-80
2020/12/15 08:49:45;;;;;;;9.32;1.33;;;7.40;99.90;;;;;;5087254;28;20145;-80
2020/12/15 08:52:21;;;;;;;10.35;1.30;;;7.50;99.90;;;;;;5069637;28;20419;-80
2020/12/15 08:54:48;;;;;;;21.73;1.83;;;7.50;99.90;;;;;;5088495;28;20048;-80
2020/12/15 08:57:15;;;;;;;12.05;1.75;;;7.50;99.90;;;;;;5089317;28;20387;-79
2020/12/15 08:59:40;;;;;;;13.98;1.85;;;7.50;99.90;;;;;;5087498;28;20032;-82
2020/12/15 09:02:08;;;;;;;16.08;1.73;;;7.60;99.90;;;;;;5085841;28;20497;-81
2020/12/15 09:04:34;;;;;;;8.57;1.40;;;7.70;99.90;;;;;;5087920;28;20021;-80
2020/12/15 09:07:11;;;;;;;13.07;2.53;;;7.80;99.90;;;;;;5087331;28;20086;-79
2020/12/15 09:09:37;;;;;;;6.95;1.40;;;8.00;99.90;;;;;;5085651;28;20040;-80
2020/12/15 09:12:02;;;;;;;10.13;2.67;;;8.30;99.90;;;;;;5085613;28;20078;-80
2020/12/15 09:14:28;;;;;;;12.23;1.83;;;8.60;99.90;;;;;;5085572;28;20390;-81
2020/12/15 09:16:54;;;;;;;19.73;2.55;;;9.00;99.90;;;;;;5085574;28;20104;-78
2020/12/15 09:19:21;;;;;;;11.50;1.88;;;9.20;99.90;;;;;;5085058;28;20081;-79
2020/12/15 09:22:02;;;;;;;10.82;2.03;;;9.40;99.90;;;;;;5085782;28;20107;-81
2020/12/15 09:24:28;;;;;;;17.58;1.77;;;9.50;99.90;;;;;;5089163;28;20035;-81
2020/12/15 09:26:55;;;;;;;10.23;1.90;;;9.70;99.90;;;;;;5090976;28;20513;-79
2020/12/15 09:29:21;;;;;;;11.95;1.75;;;9.90;99.90;;;;;;5089544;28;20044;-78
2020/12/15 09:31:59;;;;;;;14.63;1.95;;;10.10;99.90;;;;;;5088568;28;20030;-82
2020/12/15 09:34:25;;;;;;;11.70;2.92;;;10.30;99.50;;;;;;5088957;28;20020;-79
2020/12/15 09:36:56;;;;;;;9.23;1.95;;;10.50;99.60;;;;;;5089452;28;20506;-80
2020/12/15 09:39:26;;;;;;;8.20;1.55;;;10.70;99.20;;;;;;5073183;28;20028;-79
2020/12/15 09:41:52;;;;;;;9.95;2.75;;;10.90;99.00;;;;;;5088965;28;20024;-79
2020/12/15 09:44:17;;;;;;;14.48;2.38;;;11.10;98.90;;;;;;5088957;28;20458;-80
2020/12/15 09:46:43;;;;;;;8.52;2.38;;;11.40;98.70;;;;;;5090071;28;20102;-79
2020/12/15 09:49:09;;;;;;;11.80;1.33;;;11.60;98.40;;;;;;5090149;28;20024;-79
2020/12/15 09:51:35;;;;;;;7.55;1.13;;;11.90;98.20;;;;;;5089134;28;20414;-78
2020/12/15 09:54:00;;;;;;;9.73;1.85;;;12.20;97.60;;;;;;5072092;28;20581;-80
2020/12/15 09:56:28;;;;;;;15.80;2.45;;;12.30;96.90;;;;;;5072082;28;20032;-79
2020/12/15 09:58:54;;;;;;;13.57;1.88;;;12.30;96.50;;;;;;5072245;28;20028;-79
2020/12/15 10:01:20;;;;;;;15.38;1.98;;;12.20;96.30;;;;;;5088759;28;20077;-80
2020/12/15 10:03:46;;;;;;;8.32;1.20;;;12.20;96.30;;;;;;5088636;28;20102;-82
2020/12/15 10:06:16;;;;;;;16.95;2.50;;;12.30;96.30;;;;;;5089016;28;20027;-79
2020/12/15 10:08:41;;;;;;;;;;;12.30;96.20;;;;;;5090821;28;20032;-79
2020/12/15 10:11:07;;;;;;;9.77;1.40;;;12.40;96.20;;;;;;5092032;28;20266;-82
2020/12/15 10:13:33;;;;;;;7.10;1.25;;;12.20;95.80;;;;;;5073963;28;20021;-81
2020/12/15 10:15:59;;;;;;;13.57;2.30;;;12.00;95.40;;;;;;5090897;28;20040;-82
2020/12/15 10:18:24;;;;;;;7.55;2.67;;;11.80;95.30;;;;;;5090827;28;20034;-79
2020/12/15 10:20:50;;;;;;;9.20;2.22;;;11.60;95.30;;;;;;5090791;28;20476;-80
2020/12/15 10:23:16;;;;;;;10.48;2.85;;;11.40;95.30;;;;;;5090211;28;20647;-82
2020/12/15 10:25:42;;;;;;;7.20;1.13;;;11.20;95.30;;;;;;5090155;28;20081;-79
2020/12/15 10:28:09;;;;;;;8.48;1.50;;;11.00;95.30;;;;;;5073567;28;20441;-81
2020/12/15 10:30:35;;;;;;;7.95;1.70;;;10.90;95.30;;;;;;5089877;28;20028;-81
2020/12/15 10:33:02;;;;;;;8.73;2.20;;;10.80;95.70;;;;;;5072676;28;20024;-81
2020/12/15 10:35:28;;;;;;;7.70;1.55;;;10.70;95.60;;;;;;5089032;28;20025;-81
2020/12/15 10:37:53;;;;;;;10.60;1.10;;;10.60;95.60;;;;;;5089120;28;20073;-79
2020/12/15 10:40:19;;;;;;;6.10;1.00;;;10.70;95.70;;;;;;5071880;28;20037;-81
2020/12/15 10:42:45;;;;;;;2.90;0.80;;;10.70;95.70;;;;;;5089386;28;20035;-80
2020/12/15 10:45:10;;;;;;;5.88;1.15;;;10.90;96.00;;;;;;5072811;28;20039;-82
2020/12/15 10:47:36;;;;;;;3.53;0.75;;;11.40;96.40;;;;;;5072742;28;20081;-81
2020/12/15 10:50:02;;;;;;;5.50;0.95;;;12.10;96.40;;;;;;5089601;28;20117;-81
2020/12/15 10:52:28;;;;;;;4.55;1.05;;;12.70;96.00;;;;;;5089523;28;20070;-81
2020/12/15 10:54:58;;;;;;;5.30;1.00;;;13.30;95.50;;;;;;5072875;28;20381;-79
2020/12/15 10:57:23;;;;;;;4.63;0.60;;;13.90;95.00;;;;;;5089668;28;20034;-81
2020/12/15 10:59:49;;;;;;;6.78;1.65;;;14.70;95.30;;;;;;5090256;28;20106;-81
2020/12/15 11:02:17;;;;;;;5.85;0.80;;;15.30;94.30;;;;;;5090335;28;20031;-83
2020/12/15 11:04:43;;;;;;;4.97;0.82;;;15.70;93.10;;;;;;5073602;28;20032;-80
2020/12/15 11:07:09;;;;;;;5.18;1.73;;;16.10;92.60;;;;;;5090409;28;20069;-82
2020/12/15 11:09:35;;;;;;;4.75;0.77;;;16.40;91.40;;;;;;5073517;28;20042;-83
2020/12/15 11:12:00;;;;;;;4.65;1.13;;;16.70;91.20;;;;;;5090716;28;20031;-84
2020/12/15 11:14:27;;;;;;;4.35;1.48;;;16.90;89.70;;;;;;5073365;28;20064;-83
2020/12/15 11:16:52;;;;;;;4.18;1.80;;;16.80;88.60;;;;;;5091535;28;20044;-84
2020/12/15 11:19:18;;;;;;;3.28;1.05;;;16.20;86.10;;;;;;5089285;28;20032;-82
2020/12/15 11:21:44;;;;;;;3.17;0.60;;;15.50;84.90;;;;;;5089925;28;20024;-81
2020/12/15 11:24:09;;;;;;;3.47;0.90;;;14.80;86.50;;;;;;5089565;28;20039;-83
2020/12/15 11:26:35;;;;;;;2.70;0.70;;;14.60;88.70;;;;;;5072497;28;20371;-84
2020/12/15 11:29:01;;;;;;;3.22;0.70;;;14.70;90.10;;;;;;5089461;28;20347;-82
2020/12/15 11:31:26;;;;;;;3.90;1.63;;;15.00;89.60;;;;;;5089301;28;20063;-81
2020/12/15 11:33:52;;;;;;;7.55;1.73;;;15.30;88.20;;;;;;5089632;28;20031;-81
2020/12/15 11:36:18;;;;;;;3.95;0.88;;;15.50;87.50;;;;;;5088892;28;20114;-83
2020/12/15 11:38:44;;;;;;;4.28;0.75;;;15.80;86.70;;;;;;5072005;28;20028;-83
2020/12/15 11:41:11;;;;;;;2.85;0.80;;;15.90;86.10;;;;;;5090032;28;20043;-82
2020/12/15 11:43:37;;;;;;;2.58;1.02;;;16.20;86.10;;;;;;5089451;28;20074;-83
2020/12/15 11:46:03;;;;;;;9.13;2.50;;;16.40;85.10;;;;;;5088424;28;20028;-85
2020/12/15 11:48:29;;;;;;;3.97;1.58;;;16.60;84.80;;;;;;5088869;28;20031;-83
2020/12/15 11:50:54;;;;;;;10.07;2.78;;;16.80;83.20;;;;;;5088232;28;20081;-83
2020/12/15 11:53:20;;;;;;;4.32;1.20;;;17.00;83.00;;;;;;5088553;28;20127;-86
2020/12/15 11:55:46;;;;;;;3.72;0.80;;;17.10;82.60;;;;;;5071345;28;20328;-81
2020/12/15 11:58:11;;;;;;;4.63;0.93;;;17.30;81.90;;;;;;5089041;28;20707;-81
2020/12/15 12:00:37;;;;;;;4.65;1.10;;;17.30;80.60;;;;;;5071835;28;20067;-81
2020/12/15 12:03:03;;;;;;;3.28;1.70;;;17.40;80.00;;;;;;5088799;28;20028;-83
2020/12/15 12:05:28;;;;;;;1.65;0.63;;;17.40;78.90;;;;;;5088924;28;20039;-83
2020/12/15 12:07:54;;;;;;;4.55;0.90;;;17.40;78.30;;;;;;5089147;28;20024;-83
2020/12/15 12:10:20;;;;;;;5.68;0.88;;;17.10;77.30;;;;;;5088262;28;20691;-81
2020/12/15 12:12:45;;;;;;;4.75;1.05;;;16.50;75.50;;;;;;5088584;28;20047;-85
2020/12/15 12:15:11;;;;;;;4.45;1.23;;;15.70;75.50;;;;;;5090007;28;20047;-79
2020/12/15 12:17:37;;;;;;;4.80;1.30;;;15.00;76.90;;;;;;5084779;28;20529;-81
2020/12/15 12:20:03;;;;;;;6.68;1.75;;;14.50;78.30;;;;;;5089279;28;20020;-80
2020/12/15 12:22:29;;;;;;;2.30;0.95;;;14.00;80.10;;;;;;5087860;28;20247;-81
2020/12/15 12:24:55;;;;;;;4.53;1.45;;;13.70;81.90;;;;;;5087922;28;20446;-78
2020/12/15 12:27:21;;;;;;;4.28;1.08;;;13.50;82.80;;;;;;5088547;28;20027;-80
2020/12/15 12:29:47;;;;;;;4.15;0.88;;;13.40;83.50;;;;;;5071177;28;20523;-80
2020/12/15 12:32:12;;;;;;;3.38;0.73;;;13.30;84.10;;;;;;5088157;28;20031;-79
2020/12/15 12:34:38;;;;;;;5.70;0.75;;;13.10;84.60;;;;;;5088562;28;20020;-81
2020/12/15 12:37:08;;;;;;;4.43;0.88;;;13.00;85.00;;;;;;5088965;28;20024;-80
2020/12/15 12:39:35;;;;;;;5.60;0.80;;;12.90;85.50;;;;;;5089628;28;20021;-80
2020/12/15 12:42:01;;;;;;;3.97;0.90;;;12.80;86.10;;;;;;5089748;28;20024;-81
2020/12/15 12:44:27;;;;;;;3.42;0.43;;;12.60;86.70;;;;;;5088207;28;20032;-80
2020/12/15 12:46:53;;;;;;;2.38;0.57;;;12.50;86.70;;;;;;5088109;28;20035;-81
2020/12/15 12:49:19;;;;;;;5.03;0.98;;;12.30;87.10;;;;;;5087651;28;20060;-81
2020/12/15 12:51:45;;;;;;;6.07;0.98;;;12.10;87.50;;;;;;5087396;28;20125;-81